Pease, Minnesota
Current Conditions -  °F | °C
As of 12:14 AM on Friday 19 Dec 2014 (Local Time) from KPNM Reporting Station
Overcast Overcast  
Wind Chill: 21°   Ceiling: 1600
Heat Index: 21°   Visibility: 10mi
Dew Point: 18°   Wind: 0mph
Humidity: 86%   Direction: NA
Pressure: 30.25"   Gusts: NA
Location:  45.7°N, 93.65°W
Report Text: KPNM 190614Z AUTO 00000KT 10SM OVC016 M06/M08 A3025 RMK AO2
Loading
Personal Weather Stations






























Interactive Weather Map New forecast layout! Learn more

10-Day Weather Forecast

Advertisements
Track Severe Weather on mobile